Portada
METAR-TAF:

METAR-TAF

Aeroports :

Campo Grande, Mato Grosso do Sul, Brasil

latitud: 20-28S, longitud: 054-40W, altitud: 567 m

Observació

L'informe es va fer fa 54 minuts, a les 23:00 UTC
Vent 6 kt del Oest/Nord-Oest
Temperatura 23°C
Humitat 50%
Pressió 1012 hPa
Visibilitat 10 km o més
sense núvols per sota de 1500 mi sense presència de cumulonimbus.

METAR: SBCG 122300Z 30006KT CAVOK 23/12 Q1012

Hora: 19:54 (23:54 UTC)

Pronòstic

L'informe es va fer fa 2 hores i 54 minuts, a les 21:00 UTC
Pronòstic vàlid del 13 a les 00 UTC al 13 a les 24 UTC
Vent 8 kt del Nord
Visibilitat 10 km o més
sense núvols per sota de 1500 mi sense presència de cumulonimbus.
Evolucionant progressivament
l' 13 a les 12 UTC al 13 a les 14 UTC
Vent 8 kt del Nord/Nord-Oest
Evolucionant progressivament
l' 13 a les 20 UTC al 13 a les 22 UTC
Vent 5 kt del Est/Nord-Est

TAF: SBCG 122100Z 1300/1324 01008KT CAVOK TN21/1308Z TX30/1317Z BECMG 1312/1314 33008KT BECMG 1320/1322 06005KT RMK PEH

Observacions i pronòstics meteorològics de més de 4000 aeroports (METAR i TAF).

Les estacions disponibles són els punts grocs i vermells al mapa.

Posi el ratolí al punt desitjat per veure el nom de l'estació.

Feu clic per veure les observacions i els pronòstics meteorològics.

Per canviar el mapa: feu clic els botons verds amb una creu de color negre per apropar; al botó verd amb un guió per allunyar la imatge; o en les fletxes verdes per a mapes adjacents.


METAR-TAF: